Etusivu
METAR-TAF:

METAR-TAF

Lentoasemat :

Watertown Municipal Airport

Watertown, Wisconsin, Yhdysvallat

Leveyspiiri: 43-10N, Pituuspiiri: 088-43W, korkeus merenpinnasta: 254 m

Tämänhetkinen sää

Tämä raportti tehtiin 13 minuuttia sitten, kello 05.15 UTC
Tuuli 4 kn lännestä/lounaasta
Lämpötila 0°C
Kosteus 100%
Ilmanpaine 1007 hPa
Näkyvyys: 16.1 km
Pilvistä 1000 ft:n korkeudessa

METAR: KRYV 190515Z AUTO 24004KT 10SM OVC010 00/00 A2974 RMK AO2 T00000000

Aika: 23:28 (05:28 UTC)


TAF: puuttuu

Säähavainnot ja -ennusteet yli 4000 lentoasemalta (METAR- ja TAF-raportit).

Käytössä olevat sääasemat on merkitty karttaan keltaisilla ja punaisilla pisteillä.

Aseta hiiri pisteen päälle nähdäksesi sääaseman nimen.

Klikkaa sitten nähdäksesi säähavainnot ja -ennusteet.

Kartan vaihtaminen: klikkaa mustalla rastilla varustettuja vihreitä pisteitä, niin voit zoomata sisään; viivalla varustettua vihreää pistettä, niin voit zoomata ulos tai vihreitä nuolia, niin pääset viereisille kartoille.


METAR-TAF: